Aérodrome :
LOGIN :

S'inscrire | Disclaimer

   EN    FR    IT 

 










Légende :    VFR   VFR Marginal   IFR   IFR Intensif   IFR Très Intensif
Visi : 
Plafond : 
>= 8 km
>= 3000ft
5 à 8 km
1000 à 3000 ft
1500m à 5 km
500 à 1000 ft
800 à 1500m
200 à 500 ft
< 800m
< 200 ft
Symboles :   Orages  Brouillard  Fortes neiges  Fortes précipitations  Vent > 20 kt
SIGMETs :   Divers  Orages  Givrage  Turbulence  Onde Orograph.  Cendres Volcan.







- Altitude de l'aérodrome : 538 ft
- Code IATA : TNF
- Voir les cartes d'approche


LFPN - Toussus Le Noble

DERNIER METAR :
  • 221730Z AUTO 22010KT 9999 ///TCU 24/12 Q1012 TEMPO 24015G35KT 4000 TSRA SCT045CB BKN050

METARs EXPIRÉS :
  • 221700Z AUTO 24015KT CAVOK 25/11 Q1012 TEMPO 24015G35KT 4000 TSRA SCT045CB BKN050
  • 221630Z AUTO 23014KT CAVOK 26/11 Q1012 TEMPO 24015G35KT 4000 TSRA SCT045CB BKN050
  • 221600Z AUTO 22013KT CAVOK 26/13 Q1012 TEMPO 24015G35KT 4000 TSRA SCT045CB BKN050
  • 221530Z AUTO 24013KT 220V280 CAVOK 27/12 Q1012 TEMPO 24015G35KT 4000 TSRA SCT045CB BKN050
  • 221500Z AUTO 22014KT CAVOK 27/13 Q1012 TEMPO 24015G35KT 4000 TSRA SCT045CB BKN050

TAF TAF LFPN
Valide du 22 à 18h jusqu'au 23 à 03h UTC


221700Z 2218/2303 22012KT CAVOK
TEMPO 2218/2224 SHRA BKN050TCU
PROB40
TEMPO 2218/2221 24015G35KT 4000 TSRA SCT045CB BKN050
BECMG 2223/2301 30010KT BKN020
ATIS : +33 1 39 56 54 70
Pas de NOTAMs connus pour ce terrain.
1 SIGMET publié pour la FIR Paris (LFFF) :
 
Orages noyés dans la masse
LFFF SIGMET 3 VALID 221720/221900 LFPW
LFFF PARIS FIR/UIR EMBD TS FCST WI N4930 E00145 - N4815 E00200 - N4800 E00115 - N4915 E00045 - N4930 E00145 TOP FL250 MOV NE 20KT NC=



MET'MAP, la Météo Aéronautique d'un coup d'oeil ! - Copyright ORBIFLY Décembre 2007 - Disclaimer

ORBIFLY MET'MAP TEAM :

Programmation & Développement : Alexandra Zaïnal
Conception & Développement : Baudouin d'Aumeries
Co-Programmation & Développement : Marc-Olivier Méhu
Soutien technique & logistique : Manuel Goepfert

Contact : metmap@orbifly.com




SOURCES & CREDITS :

   NOAA